sensor_id;sensor_type;location;lat;lon;timestamp;P1;durP1;ratioP1;P2;durP2;ratioP2
74233;SDS011;62591;55.764;37.718;2022-12-01T00:01:35;57.85;;;23.65;;
74233;SDS011;62591;55.764;37.718;2022-12-01T00:04:04;59.13;;;22.98;;
74233;SDS011;62591;55.764;37.718;2022-12-01T00:06:34;50.90;;;22.02;;
74233;SDS011;62591;55.764;37.718;2022-12-01T00:09:03;58.45;;;24.85;;
74233;SDS011;62591;55.764;37.718;2022-12-01T00:11:49;61.10;;;25.25;;
74233;SDS011;62591;55.764;37.718;2022-12-01T00:14:17;63.15;;;24.42;;
74233;SDS011;62591;55.764;37.718;2022-12-01T00:16:46;54.97;;;22.65;;
74233;SDS011;62591;55.764;37.718;2022-12-01T00:19:14;50.70;;;21.35;;
74233;SDS011;62591;55.764;37.718;2022-12-01T00:21:46;55.40;;;22.73;;
74233;SDS011;62591;55.764;37.718;2022-12-01T00:24:15;58.33;;;22.05;;
74233;SDS011;62591;55.764;37.718;2022-12-01T00:26:43;54.22;;;21.52;;
74233;SDS011;62591;55.764;37.718;2022-12-01T00:29:12;56.55;;;21.77;;
74233;SDS011;62591;55.764;37.718;2022-12-01T00:31:41;64.63;;;24.67;;
74233;SDS011;62591;55.764;37.718;2022-12-01T00:34:11;54.13;;;23.88;;
74233;SDS011;62591;55.764;37.718;2022-12-01T00:36:50;52.15;;;20.92;;
74233;SDS011;62591;55.764;37.718;2022-12-01T00:39:19;51.10;;;20.48;;
74233;SDS011;62591;55.764;37.718;2022-12-01T00:41:47;49.15;;;20.13;;
74233;SDS011;62591;55.764;37.718;2022-12-01T00:44:16;55.38;;;20.95;;
74233;SDS011;62591;55.764;37.718;2022-12-01T00:46:44;51.35;;;20.55;;
74233;SDS011;62591;55.764;37.718;2022-12-01T00:49:13;49.42;;;20.23;;
74233;SDS011;62591;55.764;37.718;2022-12-01T00:51:42;54.55;;;21.38;;
74233;SDS011;62591;55.764;37.718;2022-12-01T00:54:12;60.67;;;23.27;;
74233;SDS011;62591;55.764;37.718;2022-12-01T00:56:40;55.22;;;22.92;;
74233;SDS011;62591;55.764;37.718;2022-12-01T00:59:09;59.97;;;21.83;;
74233;SDS011;62591;55.764;37.718;2022-12-01T01:01:38;51.10;;;22.70;;
74233;SDS011;62591;55.764;37.718;2022-12-01T01:04:07;59.17;;;22.67;;
74233;SDS011;62591;55.764;37.718;2022-12-01T01:06:36;54.20;;;22.20;;
74233;SDS011;62591;55.764;37.718;2022-12-01T01:09:04;53.13;;;22.50;;
74233;SDS011;62591;55.764;37.718;2022-12-01T01:11:34;55.80;;;23.50;;
74233;SDS011;62591;55.764;37.718;2022-12-01T01:14:03;54.22;;;22.40;;
74233;SDS011;62591;55.764;37.718;2022-12-01T01:16:32;54.03;;;21.35;;
74233;SDS011;62591;55.764;37.718;2022-12-01T01:19:01;58.65;;;21.65;;
74233;SDS011;62591;55.764;37.718;2022-12-01T01:21:29;55.70;;;21.80;;
74233;SDS011;62591;55.764;37.718;2022-12-01T01:23:58;57.28;;;22.33;;
74233;SDS011;62591;55.764;37.718;2022-12-01T01:26:27;68.07;;;24.70;;
74233;SDS011;62591;55.764;37.718;2022-12-01T01:28:59;64.90;;;23.83;;
74233;SDS011;62591;55.764;37.718;2022-12-01T01:31:29;60.33;;;22.63;;
74233;SDS011;62591;55.764;37.718;2022-12-01T01:33:57;51.97;;;21.50;;
74233;SDS011;62591;55.764;37.718;2022-12-01T01:36:26;53.33;;;20.42;;
74233;SDS011;62591;55.764;37.718;2022-12-01T01:38:55;48.97;;;20.27;;
74233;SDS011;62591;55.764;37.718;2022-12-01T01:41:24;57.47;;;21.55;;
74233;SDS011;62591;55.764;37.718;2022-12-01T01:43:53;56.97;;;21.10;;
74233;SDS011;62591;55.764;37.718;2022-12-01T01:46:24;50.75;;;20.30;;
74233;SDS011;62591;55.764;37.718;2022-12-01T01:48:55;47.85;;;20.48;;
74233;SDS011;62591;55.764;37.718;2022-12-01T01:51:28;63.67;;;24.30;;
74233;SDS011;62591;55.764;37.718;2022-12-01T01:54:01;59.42;;;24.27;;
74233;SDS011;62591;55.764;37.718;2022-12-01T01:56:33;58.55;;;22.48;;
74233;SDS011;62591;55.764;37.718;2022-12-01T01:59:03;55.28;;;21.48;;
74233;SDS011;62591;55.764;37.718;2022-12-01T02:01:33;51.65;;;20.08;;
74233;SDS011;62591;55.764;37.718;2022-12-01T02:04:02;50.72;;;21.90;;
74233;SDS011;62591;55.764;37.718;2022-12-01T02:06:31;55.28;;;21.45;;
74233;SDS011;62591;55.764;37.718;2022-12-01T02:08:59;56.80;;;20.30;;
74233;SDS011;62591;55.764;37.718;2022-12-01T02:14:40;51.80;;;21.52;;
74233;SDS011;62591;55.764;37.718;2022-12-01T02:17:28;51.00;;;21.35;;
74233;SDS011;62591;55.764;37.718;2022-12-01T02:26:37;49.33;;;20.60;;
74233;SDS011;62591;55.764;37.718;2022-12-01T02:29:32;56.15;;;22.10;;
74233;SDS011;62591;55.764;37.718;2022-12-01T02:32:20;51.05;;;20.35;;
74233;SDS011;62591;55.764;37.718;2022-12-01T02:34:58;49.72;;;19.60;;
74233;SDS011;62591;55.764;37.718;2022-12-01T02:37:32;51.10;;;21.92;;
74233;SDS011;62591;55.764;37.718;2022-12-01T02:40:08;48.83;;;20.02;;
74233;SDS011;62591;55.764;37.718;2022-12-01T02:42:47;62.35;;;24.42;;
74233;SDS011;62591;55.764;37.718;2022-12-01T02:45:27;52.00;;;19.80;;
74233;SDS011;62591;55.764;37.718;2022-12-01T02:48:03;49.30;;;19.52;;
74233;SDS011;62591;55.764;37.718;2022-12-01T02:50:36;50.83;;;21.02;;
74233;SDS011;62591;55.764;37.718;2022-12-01T02:53:07;52.10;;;20.23;;
74233;SDS011;62591;55.764;37.718;2022-12-01T02:55:45;46.92;;;20.00;;
74233;SDS011;62591;55.764;37.718;2022-12-01T02:58:14;45.97;;;18.50;;
74233;SDS011;62591;55.764;37.718;2022-12-01T03:00:44;49.20;;;18.67;;
74233;SDS011;62591;55.764;37.718;2022-12-01T03:03:36;46.25;;;17.17;;
74233;SDS011;62591;55.764;37.718;2022-12-01T03:06:23;41.97;;;17.33;;
74233;SDS011;62591;55.764;37.718;2022-12-01T03:09:06;46.72;;;17.50;;
74233;SDS011;62591;55.764;37.718;2022-12-01T03:11:44;47.03;;;17.65;;
74233;SDS011;62591;55.764;37.718;2022-12-01T03:14:21;43.97;;;18.05;;
74233;SDS011;62591;55.764;37.718;2022-12-01T03:17:01;48.70;;;17.80;;
74233;SDS011;62591;55.764;37.718;2022-12-01T03:19:36;43.72;;;17.40;;
74233;SDS011;62591;55.764;37.718;2022-12-01T03:22:11;41.28;;;17.50;;
74233;SDS011;62591;55.764;37.718;2022-12-01T03:24:43;49.47;;;19.25;;
74233;SDS011;62591;55.764;37.718;2022-12-01T03:27:16;44.47;;;18.17;;
74233;SDS011;62591;55.764;37.718;2022-12-01T03:29:51;46.53;;;17.25;;
74233;SDS011;62591;55.764;37.718;2022-12-01T03:32:24;44.72;;;18.38;;
74233;SDS011;62591;55.764;37.718;2022-12-01T03:34:59;41.90;;;16.35;;
74233;SDS011;62591;55.764;37.718;2022-12-01T03:37:32;50.47;;;19.58;;
74233;SDS011;62591;55.764;37.718;2022-12-01T03:40:06;45.75;;;17.60;;
74233;SDS011;62591;55.764;37.718;2022-12-01T03:42:39;45.90;;;19.45;;
74233;SDS011;62591;55.764;37.718;2022-12-01T03:45:13;41.08;;;17.25;;
74233;SDS011;62591;55.764;37.718;2022-12-01T03:47:46;44.50;;;18.40;;
74233;SDS011;62591;55.764;37.718;2022-12-01T03:50:16;45.80;;;18.58;;
74233;SDS011;62591;55.764;37.718;2022-12-01T03:52:46;48.40;;;18.20;;
74233;SDS011;62591;55.764;37.718;2022-12-01T03:55:27;40.30;;;17.50;;
74233;SDS011;62591;55.764;37.718;2022-12-01T03:58:00;44.58;;;18.30;;
74233;SDS011;62591;55.764;37.718;2022-12-01T04:00:33;43.75;;;18.42;;
74233;SDS011;62591;55.764;37.718;2022-12-01T04:03:02;49.60;;;19.23;;
74233;SDS011;62591;55.764;37.718;2022-12-01T04:05:33;44.42;;;17.75;;
74233;SDS011;62591;55.764;37.718;2022-12-01T04:08:02;49.60;;;18.60;;
74233;SDS011;62591;55.764;37.718;2022-12-01T04:10:30;49.80;;;18.50;;
74233;SDS011;62591;55.764;37.718;2022-12-01T04:12:59;53.83;;;19.00;;
74233;SDS011;62591;55.764;37.718;2022-12-01T04:15:27;57.85;;;18.40;;
74233;SDS011;62591;55.764;37.718;2022-12-01T04:17:55;46.10;;;19.00;;
74233;SDS011;62591;55.764;37.718;2022-12-01T04:20:23;46.05;;;18.08;;
74233;SDS011;62591;55.764;37.718;2022-12-01T04:22:53;49.47;;;18.20;;
74233;SDS011;62591;55.764;37.718;2022-12-01T04:25:22;48.45;;;19.42;;
74233;SDS011;62591;55.764;37.718;2022-12-01T04:27:50;52.75;;;20.10;;
74233;SDS011;62591;55.764;37.718;2022-12-01T04:30:19;42.22;;;17.98;;
74233;SDS011;62591;55.764;37.718;2022-12-01T04:32:47;50.05;;;19.25;;
74233;SDS011;62591;55.764;37.718;2022-12-01T04:35:16;54.28;;;19.98;;
74233;SDS011;62591;55.764;37.718;2022-12-01T04:37:44;48.45;;;19.42;;
74233;SDS011;62591;55.764;37.718;2022-12-01T04:40:14;43.53;;;18.33;;
74233;SDS011;62591;55.764;37.718;2022-12-01T04:42:45;46.88;;;20.17;;
74233;SDS011;62591;55.764;37.718;2022-12-01T04:45:15;52.78;;;18.67;;
74233;SDS011;62591;55.764;37.718;2022-12-01T04:47:43;51.17;;;20.42;;
74233;SDS011;62591;55.764;37.718;2022-12-01T04:50:12;49.13;;;18.45;;
74233;SDS011;62591;55.764;37.718;2022-12-01T04:52:41;49.78;;;17.65;;
74233;SDS011;62591;55.764;37.718;2022-12-01T04:55:09;51.63;;;18.48;;
74233;SDS011;62591;55.764;37.718;2022-12-01T04:57:42;48.53;;;18.73;;
74233;SDS011;62591;55.764;37.718;2022-12-01T05:00:11;47.25;;;20.95;;
74233;SDS011;62591;55.764;37.718;2022-12-01T05:02:40;53.95;;;21.60;;
74233;SDS011;62591;55.764;37.718;2022-12-01T05:05:09;59.42;;;23.45;;
74233;SDS011;62591;55.764;37.718;2022-12-01T05:07:38;65.82;;;25.10;;
74233;SDS011;62591;55.764;37.718;2022-12-01T05:10:09;50.60;;;22.15;;
74233;SDS011;62591;55.764;37.718;2022-12-01T05:12:39;53.42;;;21.85;;
74233;SDS011;62591;55.764;37.718;2022-12-01T05:15:10;54.40;;;20.55;;
74233;SDS011;62591;55.764;37.718;2022-12-01T05:17:38;59.67;;;20.45;;
74233;SDS011;62591;55.764;37.718;2022-12-01T05:20:07;50.63;;;19.30;;
74233;SDS011;62591;55.764;37.718;2022-12-01T05:22:56;49.15;;;20.00;;
74233;SDS011;62591;55.764;37.718;2022-12-01T05:25:36;48.17;;;19.52;;
74233;SDS011;62591;55.764;37.718;2022-12-01T05:28:06;47.92;;;18.15;;
74233;SDS011;62591;55.764;37.718;2022-12-01T05:30:34;47.17;;;20.50;;
74233;SDS011;62591;55.764;37.718;2022-12-01T05:33:03;48.88;;;20.17;;
74233;SDS011;62591;55.764;37.718;2022-12-01T05:35:31;43.35;;;17.95;;
74233;SDS011;62591;55.764;37.718;2022-12-01T05:38:00;43.17;;;19.10;;
74233;SDS011;62591;55.764;37.718;2022-12-01T05:40:34;53.47;;;18.88;;
74233;SDS011;62591;55.764;37.718;2022-12-01T05:43:02;43.00;;;18.27;;
74233;SDS011;62591;55.764;37.718;2022-12-01T05:45:32;47.72;;;20.25;;
74233;SDS011;62591;55.764;37.718;2022-12-01T05:48:01;46.63;;;19.98;;
74233;SDS011;62591;55.764;37.718;2022-12-01T05:50:29;49.42;;;19.08;;
74233;SDS011;62591;55.764;37.718;2022-12-01T05:53:00;43.55;;;18.25;;
74233;SDS011;62591;55.764;37.718;2022-12-01T05:55:28;53.47;;;19.13;;
74233;SDS011;62591;55.764;37.718;2022-12-01T05:57:59;43.13;;;17.92;;
74233;SDS011;62591;55.764;37.718;2022-12-01T06:00:27;45.83;;;18.70;;
74233;SDS011;62591;55.764;37.718;2022-12-01T06:02:57;52.33;;;19.83;;
74233;SDS011;62591;55.764;37.718;2022-12-01T06:05:26;47.22;;;18.77;;
74233;SDS011;62591;55.764;37.718;2022-12-01T06:07:54;49.78;;;19.15;;
74233;SDS011;62591;55.764;37.718;2022-12-01T06:10:23;52.90;;;20.98;;
74233;SDS011;62591;55.764;37.718;2022-12-01T06:12:51;45.53;;;17.88;;
74233;SDS011;62591;55.764;37.718;2022-12-01T06:15:20;48.88;;;20.25;;
74233;SDS011;62591;55.764;37.718;2022-12-01T06:17:48;55.08;;;19.90;;
74233;SDS011;62591;55.764;37.718;2022-12-01T06:20:18;49.80;;;19.50;;
74233;SDS011;62591;55.764;37.718;2022-12-01T06:22:47;48.65;;;18.00;;
74233;SDS011;62591;55.764;37.718;2022-12-01T06:25:15;48.65;;;19.50;;
74233;SDS011;62591;55.764;37.718;2022-12-01T06:27:47;49.95;;;17.77;;
74233;SDS011;62591;55.764;37.718;2022-12-01T06:30:15;48.90;;;19.38;;
74233;SDS011;62591;55.764;37.718;2022-12-01T06:32:44;50.30;;;19.70;;
74233;SDS011;62591;55.764;37.718;2022-12-01T06:35:12;59.85;;;20.67;;
74233;SDS011;62591;55.764;37.718;2022-12-01T06:37:42;51.35;;;19.33;;
74233;SDS011;62591;55.764;37.718;2022-12-01T06:40:11;52.47;;;20.60;;
74233;SDS011;62591;55.764;37.718;2022-12-01T06:42:40;48.40;;;21.00;;
74233;SDS011;62591;55.764;37.718;2022-12-01T06:45:09;57.25;;;21.52;;
74233;SDS011;62591;55.764;37.718;2022-12-01T06:47:38;55.25;;;21.98;;
74233;SDS011;62591;55.764;37.718;2022-12-01T06:50:06;55.20;;;22.13;;
74233;SDS011;62591;55.764;37.718;2022-12-01T06:52:37;53.78;;;21.83;;
74233;SDS011;62591;55.764;37.718;2022-12-01T06:55:08;55.28;;;21.58;;
74233;SDS011;62591;55.764;37.718;2022-12-01T06:57:38;59.45;;;21.75;;
74233;SDS011;62591;55.764;37.718;2022-12-01T07:00:07;64.38;;;24.65;;
74233;SDS011;62591;55.764;37.718;2022-12-01T07:02:37;81.25;;;31.40;;
74233;SDS011;62591;55.764;37.718;2022-12-01T07:05:06;86.43;;;30.48;;
74233;SDS011;62591;55.764;37.718;2022-12-01T07:07:35;102.82;;;35.72;;
74233;SDS011;62591;55.764;37.718;2022-12-01T07:10:05;81.97;;;29.00;;
74233;SDS011;62591;55.764;37.718;2022-12-01T07:12:36;89.32;;;31.90;;
74233;SDS011;62591;55.764;37.718;2022-12-01T07:15:05;108.63;;;39.17;;
74233;SDS011;62591;55.764;37.718;2022-12-01T07:17:35;105.03;;;40.35;;
74233;SDS011;62591;55.764;37.718;2022-12-01T07:20:04;108.35;;;42.28;;
74233;SDS011;62591;55.764;37.718;2022-12-01T07:22:35;102.63;;;37.20;;
74233;SDS011;62591;55.764;37.718;2022-12-01T07:25:04;112.75;;;40.60;;
74233;SDS011;62591;55.764;37.718;2022-12-01T07:27:33;150.20;;;51.83;;
74233;SDS011;62591;55.764;37.718;2022-12-01T07:30:04;146.05;;;49.63;;
74233;SDS011;62591;55.764;37.718;2022-12-01T07:32:33;134.80;;;45.88;;
74233;SDS011;62591;55.764;37.718;2022-12-01T07:35:02;130.68;;;45.30;;
74233;SDS011;62591;55.764;37.718;2022-12-01T07:37:31;143.20;;;49.65;;
74233;SDS011;62591;55.764;37.718;2022-12-01T07:40:00;132.65;;;44.38;;
74233;SDS011;62591;55.764;37.718;2022-12-01T07:42:28;111.25;;;38.65;;
74233;SDS011;62591;55.764;37.718;2022-12-01T07:44:59;118.78;;;38.83;;
74233;SDS011;62591;55.764;37.718;2022-12-01T07:47:29;74.40;;;27.17;;
74233;SDS011;62591;55.764;37.718;2022-12-01T07:49:58;51.30;;;21.55;;
74233;SDS011;62591;55.764;37.718;2022-12-01T07:52:26;55.80;;;21.33;;
74233;SDS011;62591;55.764;37.718;2022-12-01T07:54:55;59.72;;;23.08;;
74233;SDS011;62591;55.764;37.718;2022-12-01T07:57:23;63.08;;;23.85;;
74233;SDS011;62591;55.764;37.718;2022-12-01T07:59:51;72.47;;;26.08;;
74233;SDS011;62591;55.764;37.718;2022-12-01T08:02:22;71.05;;;27.20;;
74233;SDS011;62591;55.764;37.718;2022-12-01T08:04:50;58.40;;;24.42;;
74233;SDS011;62591;55.764;37.718;2022-12-01T08:07:19;74.72;;;30.30;;
74233;SDS011;62591;55.764;37.718;2022-12-01T08:09:52;111.47;;;43.28;;
74233;SDS011;62591;55.764;37.718;2022-12-01T08:12:21;86.25;;;32.95;;
74233;SDS011;62591;55.764;37.718;2022-12-01T08:14:49;86.72;;;32.47;;
74233;SDS011;62591;55.764;37.718;2022-12-01T08:17:18;87.70;;;35.38;;
74233;SDS011;62591;55.764;37.718;2022-12-01T08:19:48;80.82;;;31.10;;
74233;SDS011;62591;55.764;37.718;2022-12-01T08:22:16;71.38;;;28.50;;
74233;SDS011;62591;55.764;37.718;2022-12-01T08:24:45;86.18;;;29.95;;
74233;SDS011;62591;55.764;37.718;2022-12-01T08:27:13;76.35;;;28.98;;
74233;SDS011;62591;55.764;37.718;2022-12-01T08:29:42;59.05;;;24.35;;
74233;SDS011;62591;55.764;37.718;2022-12-01T08:32:10;66.25;;;26.27;;
74233;SDS011;62591;55.764;37.718;2022-12-01T08:34:38;59.63;;;24.75;;
74233;SDS011;62591;55.764;37.718;2022-12-01T08:37:08;55.45;;;24.38;;
74233;SDS011;62591;55.764;37.718;2022-12-01T08:39:37;51.88;;;23.90;;
74233;SDS011;62591;55.764;37.718;2022-12-01T08:42:05;55.60;;;24.40;;
74233;SDS011;62591;55.764;37.718;2022-12-01T08:44:34;56.22;;;22.73;;
74233;SDS011;62591;55.764;37.718;2022-12-01T08:47:02;57.80;;;22.85;;
74233;SDS011;62591;55.764;37.718;2022-12-01T08:49:31;54.03;;;22.95;;
74233;SDS011;62591;55.764;37.718;2022-12-01T08:51:59;50.35;;;22.00;;
74233;SDS011;62591;55.764;37.718;2022-12-01T08:54:29;56.03;;;22.27;;
74233;SDS011;62591;55.764;37.718;2022-12-01T08:56:58;52.40;;;22.20;;
74233;SDS011;62591;55.764;37.718;2022-12-01T08:59:26;55.42;;;23.15;;
74233;SDS011;62591;55.764;37.718;2022-12-01T09:01:55;63.95;;;23.17;;
74233;SDS011;62591;55.764;37.718;2022-12-01T09:04:28;58.80;;;23.80;;
74233;SDS011;62591;55.764;37.718;2022-12-01T09:06:56;59.22;;;22.95;;
74233;SDS011;62591;55.764;37.718;2022-12-01T09:09:26;68.85;;;24.92;;
74233;SDS011;62591;55.764;37.718;2022-12-01T09:11:56;60.90;;;24.15;;
74233;SDS011;62591;55.764;37.718;2022-12-01T09:14:26;62.67;;;25.95;;
74233;SDS011;62591;55.764;37.718;2022-12-01T09:16:54;111.15;;;42.45;;
74233;SDS011;62591;55.764;37.718;2022-12-01T09:19:23;88.00;;;33.70;;
74233;SDS011;62591;55.764;37.718;2022-12-01T09:21:51;88.05;;;35.75;;
74233;SDS011;62591;55.764;37.718;2022-12-01T09:24:20;72.88;;;30.40;;
74233;SDS011;62591;55.764;37.718;2022-12-01T09:26:48;85.93;;;34.28;;
74233;SDS011;62591;55.764;37.718;2022-12-01T09:29:18;88.38;;;36.35;;
74233;SDS011;62591;55.764;37.718;2022-12-01T09:31:47;88.95;;;38.03;;
74233;SDS011;62591;55.764;37.718;2022-12-01T09:34:16;89.20;;;36.33;;
74233;SDS011;62591;55.764;37.718;2022-12-01T09:36:45;113.10;;;45.53;;
74233;SDS011;62591;55.764;37.718;2022-12-01T09:39:15;135.48;;;51.80;;
74233;SDS011;62591;55.764;37.718;2022-12-01T09:41:48;104.13;;;43.28;;
74233;SDS011;62591;55.764;37.718;2022-12-01T09:44:27;89.40;;;40.28;;
74233;SDS011;62591;55.764;37.718;2022-12-01T09:47:04;145.48;;;59.60;;
74233;SDS011;62591;55.764;37.718;2022-12-01T09:49:43;131.25;;;55.10;;
74233;SDS011;62591;55.764;37.718;2022-12-01T09:52:17;151.23;;;61.75;;
74233;SDS011;62591;55.764;37.718;2022-12-01T09:54:47;138.35;;;59.17;;
74233;SDS011;62591;55.764;37.718;2022-12-01T09:57:17;82.53;;;35.95;;
74233;SDS011;62591;55.764;37.718;2022-12-01T09:59:56;93.72;;;34.78;;
74233;SDS011;62591;55.764;37.718;2022-12-01T10:02:29;72.63;;;30.02;;
74233;SDS011;62591;55.764;37.718;2022-12-01T10:05:03;72.43;;;29.13;;
74233;SDS011;62591;55.764;37.718;2022-12-01T10:07:35;80.40;;;32.47;;
74233;SDS011;62591;55.764;37.718;2022-12-01T10:10:11;77.85;;;31.90;;
74233;SDS011;62591;55.764;37.718;2022-12-01T10:12:42;76.38;;;31.17;;
74233;SDS011;62591;55.764;37.718;2022-12-01T10:15:17;80.35;;;32.25;;
74233;SDS011;62591;55.764;37.718;2022-12-01T10:18:00;74.97;;;31.33;;
74233;SDS011;62591;55.764;37.718;2022-12-01T10:20:40;73.38;;;31.88;;
74233;SDS011;62591;55.764;37.718;2022-12-01T10:23:16;81.95;;;30.38;;
74233;SDS011;62591;55.764;37.718;2022-12-01T10:26:07;82.07;;;36.72;;
74233;SDS011;62591;55.764;37.718;2022-12-01T10:28:46;91.43;;;37.90;;
74233;SDS011;62591;55.764;37.718;2022-12-01T10:31:30;95.00;;;41.55;;
74233;SDS011;62591;55.764;37.718;2022-12-01T10:34:05;112.03;;;45.30;;
74233;SDS011;62591;55.764;37.718;2022-12-01T10:36:35;98.32;;;40.78;;
74233;SDS011;62591;55.764;37.718;2022-12-01T10:39:03;109.95;;;50.85;;
74233;SDS011;62591;55.764;37.718;2022-12-01T10:41:34;122.78;;;51.78;;
74233;SDS011;62591;55.764;37.718;2022-12-01T10:44:05;107.97;;;44.28;;
74233;SDS011;62591;55.764;37.718;2022-12-01T10:46:38;111.57;;;47.05;;
74233;SDS011;62591;55.764;37.718;2022-12-01T10:49:10;111.25;;;45.22;;
74233;SDS011;62591;55.764;37.718;2022-12-01T10:51:51;93.97;;;42.88;;
74233;SDS011;62591;55.764;37.718;2022-12-01T10:54:21;103.80;;;43.47;;
74233;SDS011;62591;55.764;37.718;2022-12-01T10:56:54;98.10;;;41.28;;
74233;SDS011;62591;55.764;37.718;2022-12-01T10:59:24;84.88;;;37.22;;
74233;SDS011;62591;55.764;37.718;2022-12-01T11:02:00;88.20;;;35.20;;
74233;SDS011;62591;55.764;37.718;2022-12-01T11:04:32;85.05;;;38.45;;
74233;SDS011;62591;55.764;37.718;2022-12-01T11:07:03;94.18;;;41.38;;
74233;SDS011;62591;55.764;37.718;2022-12-01T11:09:31;93.30;;;41.63;;
74233;SDS011;62591;55.764;37.718;2022-12-01T11:12:00;92.95;;;41.00;;
74233;SDS011;62591;55.764;37.718;2022-12-01T11:14:33;87.85;;;37.92;;
74233;SDS011;62591;55.764;37.718;2022-12-01T11:17:15;93.32;;;38.17;;
74233;SDS011;62591;55.764;37.718;2022-12-01T11:19:52;95.10;;;38.63;;
74233;SDS011;62591;55.764;37.718;2022-12-01T11:22:21;87.68;;;37.78;;
74233;SDS011;62591;55.764;37.718;2022-12-01T11:24:55;82.75;;;34.47;;
74233;SDS011;62591;55.764;37.718;2022-12-01T11:27:31;78.82;;;35.75;;
74233;SDS011;62591;55.764;37.718;2022-12-01T11:30:03;89.57;;;36.88;;
74233;SDS011;62591;55.764;37.718;2022-12-01T11:32:37;77.43;;;34.38;;
74233;SDS011;62591;55.764;37.718;2022-12-01T11:35:13;97.93;;;42.38;;
74233;SDS011;62591;55.764;37.718;2022-12-01T11:37:45;87.78;;;40.17;;
74233;SDS011;62591;55.764;37.718;2022-12-01T11:40:37;90.53;;;39.83;;
74233;SDS011;62591;55.764;37.718;2022-12-01T11:43:18;86.70;;;40.03;;
74233;SDS011;62591;55.764;37.718;2022-12-01T11:45:50;96.72;;;40.78;;
74233;SDS011;62591;55.764;37.718;2022-12-01T11:48:23;85.50;;;38.10;;
74233;SDS011;62591;55.764;37.718;2022-12-01T11:51:00;76.85;;;35.50;;
74233;SDS011;62591;55.764;37.718;2022-12-01T11:53:37;79.43;;;35.28;;
74233;SDS011;62591;55.764;37.718;2022-12-01T11:56:13;83.55;;;35.13;;
74233;SDS011;62591;55.764;37.718;2022-12-01T11:58:47;74.57;;;32.17;;
74233;SDS011;62591;55.764;37.718;2022-12-01T12:01:19;68.35;;;29.30;;
74233;SDS011;62591;55.764;37.718;2022-12-01T12:04:04;73.95;;;31.27;;
74233;SDS011;62591;55.764;37.718;2022-12-01T12:06:57;75.07;;;32.63;;
74233;SDS011;62591;55.764;37.718;2022-12-01T12:09:37;76.07;;;33.47;;
74233;SDS011;62591;55.764;37.718;2022-12-01T12:12:17;87.80;;;37.72;;
74233;SDS011;62591;55.764;37.718;2022-12-01T12:15:00;91.82;;;41.15;;
74233;SDS011;62591;55.764;37.718;2022-12-01T12:17:53;93.95;;;42.35;;
74233;SDS011;62591;55.764;37.718;2022-12-01T12:20:41;91.53;;;41.75;;
74233;SDS011;62591;55.764;37.718;2022-12-01T12:23:26;91.18;;;39.30;;
74233;SDS011;62591;55.764;37.718;2022-12-01T12:26:13;102.25;;;43.40;;
74233;SDS011;62591;55.764;37.718;2022-12-01T12:28:55;117.95;;;48.28;;
74233;SDS011;62591;55.764;37.718;2022-12-01T12:31:42;131.57;;;52.08;;
74233;SDS011;62591;55.764;37.718;2022-12-01T12:34:24;103.85;;;41.95;;
74233;SDS011;62591;55.764;37.718;2022-12-01T12:37:08;80.97;;;34.03;;
74233;SDS011;62591;55.764;37.718;2022-12-01T12:39:51;75.95;;;32.80;;
74233;SDS011;62591;55.764;37.718;2022-12-01T12:42:42;85.30;;;35.05;;
74233;SDS011;62591;55.764;37.718;2022-12-01T12:45:19;82.13;;;35.20;;
74233;SDS011;62591;55.764;37.718;2022-12-01T12:48:07;96.68;;;37.28;;
74233;SDS011;62591;55.764;37.718;2022-12-01T12:50:49;90.97;;;38.38;;
74233;SDS011;62591;55.764;37.718;2022-12-01T12:53:32;95.80;;;36.30;;
74233;SDS011;62591;55.764;37.718;2022-12-01T12:56:09;112.55;;;44.80;;
74233;SDS011;62591;55.764;37.718;2022-12-01T12:58:42;116.43;;;45.17;;
74233;SDS011;62591;55.764;37.718;2022-12-01T13:01:22;135.05;;;51.80;;
74233;SDS011;62591;55.764;37.718;2022-12-01T13:03:54;144.00;;;55.50;;
74233;SDS011;62591;55.764;37.718;2022-12-01T13:06:29;125.15;;;50.20;;
74233;SDS011;62591;55.764;37.718;2022-12-01T13:09:04;95.07;;;40.20;;
74233;SDS011;62591;55.764;37.718;2022-12-01T13:11:40;109.00;;;42.38;;
74233;SDS011;62591;55.764;37.718;2022-12-01T13:14:14;106.97;;;44.60;;
74233;SDS011;62591;55.764;37.718;2022-12-01T13:16:47;102.65;;;45.65;;
74233;SDS011;62591;55.764;37.718;2022-12-01T13:19:18;110.43;;;48.13;;
74233;SDS011;62591;55.764;37.718;2022-12-01T13:21:50;118.15;;;50.47;;
74233;SDS011;62591;55.764;37.718;2022-12-01T13:24:22;126.72;;;51.40;;
74233;SDS011;62591;55.764;37.718;2022-12-01T13:26:53;133.20;;;54.47;;
74233;SDS011;62591;55.764;37.718;2022-12-01T13:29:26;139.02;;;58.47;;
74233;SDS011;62591;55.764;37.718;2022-12-01T13:31:57;111.07;;;48.47;;
74233;SDS011;62591;55.764;37.718;2022-12-01T13:34:27;70.72;;;30.17;;
74233;SDS011;62591;55.764;37.718;2022-12-01T13:37:03;72.55;;;30.38;;
74233;SDS011;62591;55.764;37.718;2022-12-01T13:39:35;72.20;;;26.95;;
74233;SDS011;62591;55.764;37.718;2022-12-01T13:42:05;76.50;;;33.55;;
74233;SDS011;62591;55.764;37.718;2022-12-01T13:44:36;72.65;;;33.53;;
74233;SDS011;62591;55.764;37.718;2022-12-01T13:53:08;71.05;;;32.03;;
74233;SDS011;62591;55.764;37.718;2022-12-01T13:58:39;71.05;;;30.60;;
74233;SDS011;62591;55.764;37.718;2022-12-01T14:09:46;89.07;;;30.73;;
74233;SDS011;62591;55.764;37.718;2022-12-01T14:12:19;65.40;;;26.80;;
74233;SDS011;62591;55.764;37.718;2022-12-01T14:14:51;66.53;;;26.15;;
74233;SDS011;62591;55.764;37.718;2022-12-01T14:17:25;65.15;;;28.10;;
74233;SDS011;62591;55.764;37.718;2022-12-01T14:20:02;77.20;;;29.85;;
74233;SDS011;62591;55.764;37.718;2022-12-01T14:22:36;65.03;;;28.02;;
74233;SDS011;62591;55.764;37.718;2022-12-01T14:25:19;71.57;;;28.55;;
74233;SDS011;62591;55.764;37.718;2022-12-01T14:27:53;77.97;;;31.13;;
74233;SDS011;62591;55.764;37.718;2022-12-01T14:33:44;79.05;;;34.70;;
74233;SDS011;62591;55.764;37.718;2022-12-01T14:36:33;91.85;;;37.45;;
74233;SDS011;62591;55.764;37.718;2022-12-01T14:39:09;72.03;;;29.13;;
74233;SDS011;62591;55.764;37.718;2022-12-01T14:41:42;68.00;;;28.75;;
74233;SDS011;62591;55.764;37.718;2022-12-01T14:44:20;76.50;;;31.13;;
74233;SDS011;62591;55.764;37.718;2022-12-01T14:46:52;76.50;;;33.42;;
74233;SDS011;62591;55.764;37.718;2022-12-01T14:49:31;77.32;;;32.22;;
74233;SDS011;62591;55.764;37.718;2022-12-01T14:52:05;108.20;;;39.60;;
74233;SDS011;62591;55.764;37.718;2022-12-01T14:54:41;151.55;;;55.33;;
74233;SDS011;62591;55.764;37.718;2022-12-01T14:57:12;99.80;;;39.10;;
74233;SDS011;62591;55.764;37.718;2022-12-01T14:59:47;92.15;;;40.05;;
74233;SDS011;62591;55.764;37.718;2022-12-01T15:02:30;88.68;;;36.00;;
74233;SDS011;62591;55.764;37.718;2022-12-01T15:05:05;83.38;;;34.20;;
74233;SDS011;62591;55.764;37.718;2022-12-01T15:07:37;88.28;;;35.67;;